createdAt,value
2022-10-10T00:00:47.030Z,5.32
2022-10-10T00:03:13.781Z,9.60
2022-10-10T00:05:41.434Z,4.13
2022-10-10T00:08:08.080Z,4.13
2022-10-10T00:10:34.857Z,4.60
2022-10-10T00:13:01.366Z,5.13
2022-10-10T00:15:28.946Z,7.28
2022-10-10T00:17:55.368Z,5.28
2022-10-10T00:20:22.080Z,4.22
2022-10-10T00:22:49.107Z,6.22
2022-10-10T00:25:15.990Z,5.97
2022-10-10T00:27:42.548Z,6.07
2022-10-10T00:30:09.876Z,5.25
2022-10-10T00:32:36.942Z,6.68
2022-10-10T00:35:04.950Z,6.65
2022-10-10T00:37:31.421Z,5.03
2022-10-10T00:39:58.196Z,3.53
2022-10-10T00:42:24.650Z,5.97
2022-10-10T00:45:36.031Z,4.75
2022-10-10T00:48:08.355Z,4.78
2022-10-10T00:50:40.608Z,6.65
2022-10-10T00:53:10.482Z,8.80
2022-10-10T00:55:37.761Z,4.93
2022-10-10T00:58:06.749Z,5.65
2022-10-10T01:00:33.235Z,8.30
2022-10-10T01:02:59.906Z,5.13
2022-10-10T01:05:26.914Z,4.93
2022-10-10T01:07:53.610Z,5.30
2022-10-10T01:10:22.885Z,6.07
2022-10-10T01:13:42.671Z,5.90
2022-10-10T01:16:28.878Z,5.55
2022-10-10T01:19:19.434Z,6.10
2022-10-10T01:21:55.800Z,4.78
2022-10-10T01:24:41.213Z,4.43
2022-10-10T01:27:31.791Z,4.38
2022-10-10T01:29:58.385Z,6.53
2022-10-10T01:32:54.415Z,6.35
2022-10-10T01:38:20.221Z,7.03
2022-10-10T01:40:56.312Z,7.85
2022-10-10T01:43:26.393Z,7.80
2022-10-10T01:45:53.850Z,4.82
2022-10-10T01:48:29.089Z,7.70
2022-10-10T01:53:46.286Z,5.53
2022-10-10T01:56:31.766Z,5.57
2022-10-10T01:59:16.666Z,9.10
2022-10-10T02:02:02.237Z,6.90
2022-10-10T02:07:23.881Z,5.20
2022-10-10T02:09:52.704Z,7.85
2022-10-10T02:12:21.691Z,5.63
2022-10-10T02:14:52.964Z,9.13
2022-10-10T02:17:21.319Z,4.82
2022-10-10T02:19:56.733Z,5.95
2022-10-10T02:22:24.654Z,9.45
2022-10-10T02:24:52.580Z,5.57
2022-10-10T02:27:29.967Z,6.40
2022-10-10T02:29:59.308Z,9.80
2022-10-10T02:32:39.576Z,6.10
2022-10-10T02:35:09.749Z,7.65
2022-10-10T02:37:39.977Z,9.77
2022-10-10T02:40:08.803Z,8.23
2022-10-10T02:42:37.809Z,5.15
2022-10-10T02:45:05.270Z,4.95
2022-10-10T02:47:31.890Z,6.78
2022-10-10T02:49:58.408Z,5.32
2022-10-10T02:52:25.018Z,5.78
2022-10-10T02:54:51.879Z,5.22
2022-10-10T02:57:18.362Z,6.15
2022-10-10T02:59:44.761Z,11.48
2022-10-10T03:02:11.219Z,5.25
2022-10-10T03:04:37.683Z,6.47
2022-10-10T03:07:05.111Z,7.97
2022-10-10T03:09:31.762Z,6.30
2022-10-10T03:11:58.231Z,10.27
2022-10-10T03:14:24.763Z,8.68
2022-10-10T03:16:51.228Z,5.90
2022-10-10T03:19:17.852Z,5.75
2022-10-10T03:21:44.333Z,5.88
2022-10-10T03:24:10.990Z,4.80
2022-10-10T03:26:37.424Z,7.18
2022-10-10T03:29:04.662Z,5.25
2022-10-10T03:31:31.316Z,5.70
2022-10-10T03:33:58.540Z,5.35
2022-10-10T03:36:24.968Z,7.65
2022-10-10T03:38:51.573Z,5.43
2022-10-10T03:41:17.955Z,5.03
2022-10-10T03:43:44.558Z,6.50
2022-10-10T03:46:15.816Z,8.52
2022-10-10T03:48:43.318Z,8.75
2022-10-10T03:51:09.835Z,6.47
2022-10-10T03:53:36.967Z,5.70
2022-10-10T03:56:03.624Z,7.97
2022-10-10T03:58:30.320Z,5.78
2022-10-10T04:01:01.997Z,8.32
2022-10-10T04:03:29.321Z,5.93
2022-10-10T04:05:57.942Z,7.18
2022-10-10T04:08:24.927Z,7.63
2022-10-10T04:10:53.133Z,5.10
2022-10-10T04:13:20.453Z,8.70
2022-10-10T04:15:51.379Z,6.07
2022-10-10T04:18:18.609Z,9.45
2022-10-10T04:20:45.241Z,5.55
2022-10-10T04:23:11.629Z,5.30
2022-10-10T04:25:38.148Z,8.20
2022-10-10T04:28:04.572Z,9.75
2022-10-10T04:30:33.973Z,5.38
2022-10-10T04:33:00.593Z,6.47
2022-10-10T04:35:27.296Z,8.45
2022-10-10T04:37:53.662Z,9.00
2022-10-10T04:40:25.455Z,10.38
2022-10-10T04:42:53.564Z,9.18
2022-10-10T04:45:20.200Z,8.02
2022-10-10T04:47:46.761Z,5.97
2022-10-10T04:50:13.380Z,5.97
2022-10-10T04:52:39.736Z,7.63
2022-10-10T04:55:06.370Z,8.07
2022-10-10T04:57:32.844Z,7.25
2022-10-10T04:59:59.611Z,6.32
2022-10-10T05:02:26.030Z,6.47
2022-10-10T05:04:52.574Z,8.73
2022-10-10T05:07:19.223Z,9.77
2022-10-10T05:09:45.677Z,6.15
2022-10-10T05:12:12.053Z,7.40
2022-10-10T05:14:38.647Z,8.98
2022-10-10T05:17:05.132Z,8.05
2022-10-10T05:19:31.656Z,7.05
2022-10-10T05:21:58.583Z,6.20
2022-10-10T05:24:25.186Z,7.05
2022-10-10T05:26:51.568Z,5.07
2022-10-10T05:29:18.080Z,7.07
2022-10-10T05:31:44.472Z,8.77
2022-10-10T05:34:13.794Z,7.45
2022-10-10T05:36:41.008Z,8.13
2022-10-10T05:39:08.137Z,9.52
2022-10-10T05:41:35.397Z,13.73
2022-10-10T05:44:01.890Z,6.43
2022-10-10T05:46:28.392Z,8.45
2022-10-10T05:48:54.903Z,8.85
2022-10-10T05:51:21.573Z,9.60
2022-10-10T05:53:48.352Z,6.78
2022-10-10T05:56:16.995Z,6.82
2022-10-10T05:58:46.784Z,8.80
2022-10-10T06:01:13.254Z,6.03
2022-10-10T06:03:39.819Z,8.00
2022-10-10T06:06:07.194Z,9.05
2022-10-10T06:08:33.830Z,8.30
2022-10-10T06:11:06.298Z,8.95
2022-10-10T06:13:32.827Z,7.50
2022-10-10T06:15:59.412Z,6.43
2022-10-10T06:18:25.981Z,6.50
2022-10-10T06:20:52.435Z,10.98
2022-10-10T06:23:20.049Z,6.30
2022-10-10T06:25:47.129Z,7.05
2022-10-10T06:28:13.837Z,7.60
2022-10-10T06:30:44.677Z,5.78
2022-10-10T06:33:12.387Z,11.15
2022-10-10T06:35:40.874Z,6.55
2022-10-10T06:38:07.793Z,7.30
2022-10-10T06:40:34.467Z,5.97
2022-10-10T06:43:01.785Z,8.05
2022-10-10T06:45:28.834Z,7.53
2022-10-10T06:47:55.480Z,7.55
2022-10-10T06:50:22.177Z,8.98
2022-10-10T06:52:49.241Z,8.77
2022-10-10T06:55:15.964Z,7.85
2022-10-10T06:57:42.490Z,10.23
2022-10-10T07:00:09.392Z,6.57
2022-10-10T07:02:40.594Z,9.85
2022-10-10T07:05:11.885Z,7.70
2022-10-10T07:07:40.048Z,8.43
2022-10-10T07:10:08.020Z,6.28
2022-10-10T07:12:42.081Z,11.15
2022-10-10T07:15:11.729Z,9.27
2022-10-10T07:17:40.489Z,10.15
2022-10-10T07:20:07.622Z,7.07
2022-10-10T07:22:34.329Z,7.18
2022-10-10T07:25:00.704Z,7.05
2022-10-10T07:27:27.401Z,9.65
2022-10-10T07:29:53.851Z,10.38
2022-10-10T07:32:20.564Z,9.05
2022-10-10T07:34:47.179Z,7.03
2022-10-10T07:37:15.779Z,7.72
2022-10-10T07:39:42.439Z,9.10
2022-10-10T07:42:09.022Z,8.05
2022-10-10T07:44:35.403Z,7.85
2022-10-10T07:47:02.043Z,8.90
2022-10-10T07:49:28.536Z,5.82
2022-10-10T07:51:59.018Z,7.10
2022-10-10T07:54:28.285Z,6.68
2022-10-10T07:56:54.906Z,9.10
2022-10-10T07:59:22.557Z,9.15
2022-10-10T08:01:49.382Z,9.23
2022-10-10T08:04:16.071Z,8.25
2022-10-10T08:06:42.606Z,6.05
2022-10-10T08:09:09.669Z,10.20
2022-10-10T08:11:36.109Z,8.32
2022-10-10T08:14:03.243Z,6.55
2022-10-10T08:16:29.692Z,7.82
2022-10-10T08:18:56.239Z,6.60
2022-10-10T08:21:22.681Z,10.23
2022-10-10T08:23:49.393Z,7.90
2022-10-10T08:26:17.557Z,7.45
2022-10-10T08:28:45.022Z,6.82
2022-10-10T08:31:17.260Z,6.93
2022-10-10T08:33:52.509Z,10.13
2022-10-10T08:38:47.759Z,7.72
2022-10-10T08:41:42.615Z,9.20
2022-10-10T08:44:41.529Z,6.03
2022-10-10T08:47:30.908Z,7.38
2022-10-10T08:50:03.125Z,7.60
2022-10-10T08:52:32.921Z,10.63
2022-10-10T08:55:02.415Z,6.00
2022-10-10T08:57:38.082Z,9.05
2022-10-10T09:00:07.101Z,9.57
2022-10-10T09:03:00.896Z,6.25
2022-10-10T09:05:36.611Z,8.60
2022-10-10T09:08:03.056Z,6.30
2022-10-10T09:10:35.013Z,8.32
2022-10-10T09:13:06.906Z,9.05
2022-10-10T09:15:35.813Z,6.65
2022-10-10T09:18:20.714Z,7.25
2022-10-10T09:21:16.299Z,7.85
2022-10-10T09:24:24.844Z,8.55
2022-10-10T09:26:56.399Z,8.05
2022-10-10T09:29:35.455Z,6.10
2022-10-10T09:32:11.266Z,6.85
2022-10-10T09:34:43.814Z,7.82
2022-10-10T09:37:24.258Z,8.35
2022-10-10T09:40:21.619Z,8.07
2022-10-10T09:42:48.199Z,11.73
2022-10-10T09:45:19.259Z,6.00
2022-10-10T09:47:51.212Z,8.35
2022-10-10T09:50:18.056Z,10.82
2022-10-10T09:52:46.211Z,7.25
2022-10-10T09:55:39.297Z,7.22
2022-10-10T09:58:26.240Z,6.75
2022-10-10T10:00:53.748Z,8.85
2022-10-10T10:03:22.792Z,8.00
2022-10-10T10:06:04.780Z,8.23
2022-10-10T10:08:36.241Z,9.20
2022-10-10T10:11:31.849Z,9.90
2022-10-10T10:14:02.146Z,7.90
2022-10-10T10:16:36.999Z,7.22
2022-10-10T10:19:26.075Z,6.50
2022-10-10T10:21:52.646Z,10.57
2022-10-10T10:24:22.565Z,9.57
2022-10-10T10:26:49.641Z,4.90
2022-10-10T10:29:28.010Z,9.80
2022-10-10T10:32:39.853Z,6.65
2022-10-10T10:35:18.845Z,7.95
2022-10-10T10:38:26.936Z,7.60
2022-10-10T10:41:00.142Z,6.40
2022-10-10T10:43:46.282Z,5.70
2022-10-10T10:46:46.788Z,5.18
2022-10-10T10:49:28.363Z,10.02
2022-10-10T10:52:07.216Z,7.70
2022-10-10T10:54:37.043Z,6.53
2022-10-10T11:00:26.474Z,5.38
2022-10-10T11:04:15.669Z,8.82
2022-10-10T11:06:39.576Z,6.28
2022-10-10T11:09:49.988Z,12.55
2022-10-10T11:12:28.629Z,6.78
2022-10-10T11:15:01.308Z,7.07
2022-10-10T11:17:37.786Z,4.70
2022-10-10T11:20:36.062Z,6.88
2022-10-10T11:23:18.565Z,10.85
2022-10-10T11:25:55.218Z,7.07
2022-10-10T11:28:41.545Z,5.03
2022-10-10T11:31:18.492Z,4.97
2022-10-10T11:33:51.988Z,7.82
2022-10-10T11:36:21.031Z,9.45
2022-10-10T11:39:05.194Z,9.45
2022-10-10T11:41:40.327Z,6.28
2022-10-10T11:47:06.826Z,11.80
2022-10-10T11:49:51.541Z,9.38
2022-10-10T11:52:47.040Z,10.13
2022-10-10T11:55:26.311Z,10.23
2022-10-10T11:57:58.104Z,6.28
2022-10-10T12:00:28.417Z,9.10
2022-10-10T12:02:56.502Z,6.25
2022-10-10T12:05:26.841Z,7.07
2022-10-10T12:08:19.083Z,4.30
2022-10-10T12:10:52.360Z,5.18
2022-10-10T12:13:35.421Z,9.43
2022-10-10T12:16:07.297Z,5.22
2022-10-10T12:18:42.288Z,6.65
2022-10-10T12:21:18.375Z,7.95
2022-10-10T12:23:59.330Z,6.35
2022-10-10T12:26:26.497Z,8.00
2022-10-10T12:29:09.692Z,4.63
2022-10-10T12:31:37.707Z,6.68
2022-10-10T12:34:06.406Z,10.55
2022-10-10T12:36:32.753Z,4.63
2022-10-10T12:39:03.177Z,8.65
2022-10-10T12:41:46.967Z,7.70
2022-10-10T12:44:35.040Z,5.20
2022-10-10T12:47:13.697Z,7.53
2022-10-10T12:49:59.894Z,9.98
2022-10-10T12:52:54.871Z,8.77
2022-10-10T12:55:26.127Z,8.85
2022-10-10T12:57:55.934Z,8.25
2022-10-10T13:00:26.093Z,9.80
2022-10-10T13:02:56.780Z,6.03
2022-10-10T13:05:29.097Z,7.45
2022-10-10T13:08:00.572Z,6.72
2022-10-10T13:10:30.599Z,4.10
2022-10-10T13:13:18.255Z,5.35
2022-10-10T13:15:53.325Z,6.07
2022-10-10T13:18:44.130Z,6.85
2022-10-10T13:21:14.223Z,4.90
2022-10-10T13:23:44.358Z,5.95
2022-10-10T13:26:21.716Z,9.35
2022-10-10T13:28:49.353Z,5.35
2022-10-10T13:31:16.185Z,7.13
2022-10-10T13:33:42.986Z,10.02
2022-10-10T13:36:22.256Z,6.85
2022-10-10T13:38:49.952Z,7.40
2022-10-10T13:41:20.865Z,6.28
2022-10-10T13:43:47.517Z,8.75
2022-10-10T13:46:30.615Z,7.65
2022-10-10T13:48:58.355Z,9.18
2022-10-10T13:51:45.865Z,5.50
2022-10-10T13:54:39.390Z,4.97
2022-10-10T13:57:13.484Z,6.70
2022-10-10T13:59:40.224Z,8.23
2022-10-10T14:02:16.852Z,6.47
2022-10-10T14:04:51.322Z,7.70
2022-10-10T14:07:25.958Z,6.18
2022-10-10T14:10:06.815Z,6.18
2022-10-10T14:12:51.693Z,8.82
2022-10-10T14:15:42.964Z,6.15
2022-10-10T14:18:19.358Z,10.75
2022-10-10T14:20:46.287Z,10.05
2022-10-10T14:23:14.591Z,9.65
2022-10-10T14:25:43.075Z,8.35
2022-10-10T14:28:31.213Z,8.07
2022-10-10T14:30:57.674Z,4.93
2022-10-10T14:33:26.532Z,9.05
2022-10-10T14:35:54.440Z,9.02
2022-10-10T14:38:22.418Z,7.70
2022-10-10T14:40:50.106Z,5.78
2022-10-10T14:43:17.827Z,5.88
2022-10-10T14:45:45.014Z,6.55
2022-10-10T14:48:12.203Z,9.27
2022-10-10T14:50:44.190Z,5.40
2022-10-10T14:53:11.499Z,6.72
2022-10-10T14:55:38.974Z,9.40
2022-10-10T14:58:05.523Z,10.18
2022-10-10T15:00:32.001Z,6.47
2022-10-10T15:02:58.597Z,6.03
2022-10-10T15:05:24.995Z,6.68
2022-10-10T15:07:53.658Z,6.70
2022-10-10T15:10:35.973Z,5.70
2022-10-10T15:13:03.477Z,5.68
2022-10-10T15:15:30.451Z,5.97
2022-10-10T15:18:00.722Z,8.65
2022-10-10T15:20:31.422Z,6.25
2022-10-10T15:23:03.122Z,6.75
2022-10-10T15:25:34.138Z,14.13
2022-10-10T15:28:02.395Z,7.30
2022-10-10T15:30:30.409Z,5.63
2022-10-10T15:32:56.867Z,8.95
2022-10-10T15:35:24.511Z,8.60
2022-10-10T15:37:51.135Z,7.22
2022-10-10T15:40:23.497Z,8.60
2022-10-10T15:42:50.623Z,7.80
2022-10-10T15:45:36.880Z,9.68
2022-10-10T15:48:04.918Z,10.95
2022-10-10T15:50:32.400Z,8.98
2022-10-10T15:52:58.850Z,14.27
2022-10-10T15:55:26.596Z,7.13
2022-10-10T15:57:53.084Z,12.25
2022-10-10T16:00:19.781Z,9.13
2022-10-10T16:02:46.309Z,17.88
2022-10-10T16:05:13.896Z,14.10
2022-10-10T16:07:47.705Z,14.38
2022-10-10T16:10:15.824Z,5.70
2022-10-10T16:12:42.713Z,10.40
2022-10-10T16:15:09.595Z,17.50
2022-10-10T16:17:37.239Z,14.10
2022-10-10T16:20:04.143Z,13.63
2022-10-10T16:22:31.754Z,10.18
2022-10-10T16:25:20.587Z,9.27
2022-10-10T16:27:44.871Z,7.95
2022-10-10T16:30:11.693Z,11.48
2022-10-10T16:32:42.376Z,7.65
2022-10-10T16:35:10.451Z,8.00
2022-10-10T16:37:38.130Z,6.95
2022-10-10T16:40:05.604Z,9.88
2022-10-10T16:42:32.124Z,8.43
2022-10-10T16:44:58.575Z,6.22
2022-10-10T16:47:25.037Z,6.50
2022-10-10T16:49:51.534Z,8.40
2022-10-10T16:52:18.165Z,12.63
2022-10-10T16:54:46.910Z,8.60
2022-10-10T16:57:16.968Z,8.60
2022-10-10T16:59:43.340Z,11.43
2022-10-10T17:02:11.855Z,11.80
2022-10-10T17:04:38.260Z,14.98
2022-10-10T17:07:04.642Z,14.70
2022-10-10T17:09:31.249Z,12.43
2022-10-10T17:11:57.660Z,22.02
2022-10-10T17:14:24.106Z,10.43
2022-10-10T17:17:11.043Z,13.13
2022-10-10T17:19:37.051Z,10.57
2022-10-10T17:22:04.742Z,9.95
2022-10-10T17:24:31.150Z,9.27
2022-10-10T17:26:57.666Z,17.80
2022-10-10T17:29:24.700Z,14.32
2022-10-10T17:31:51.149Z,10.27
2022-10-10T17:34:17.569Z,14.10
2022-10-10T17:36:43.995Z,14.48
2022-10-10T17:39:10.429Z,11.40
2022-10-10T17:41:36.978Z,9.80
2022-10-10T17:44:05.140Z,14.32
2022-10-10T17:46:35.362Z,13.80
2022-10-10T17:49:04.538Z,10.55
2022-10-10T17:51:31.039Z,10.38
2022-10-10T17:53:59.597Z,6.85
2022-10-10T17:56:26.883Z,10.38
2022-10-10T17:58:53.296Z,12.23
2022-10-10T18:01:20.749Z,9.38
2022-10-10T18:03:48.307Z,13.80
2022-10-10T18:06:18.456Z,9.45
2022-10-10T18:08:46.852Z,11.45
2022-10-10T18:11:15.081Z,14.80
2022-10-10T18:13:41.507Z,11.15
2022-10-10T18:16:13.482Z,8.52
2022-10-10T18:18:41.152Z,15.65
2022-10-10T18:21:09.985Z,13.00
2022-10-10T18:23:36.898Z,15.00
2022-10-10T18:26:06.424Z,18.65
2022-10-10T18:28:35.245Z,17.10
2022-10-10T18:31:13.295Z,22.77
2022-10-10T18:33:40.564Z,19.15
2022-10-10T18:36:08.600Z,10.93
2022-10-10T18:38:35.649Z,16.98
2022-10-10T18:41:11.221Z,14.75
2022-10-10T18:43:38.428Z,11.27
2022-10-10T18:46:07.352Z,10.98
2022-10-10T18:48:35.414Z,11.52
2022-10-10T18:51:06.916Z,11.57
2022-10-10T18:53:38.382Z,11.80
2022-10-10T18:56:05.611Z,10.73
2022-10-10T18:58:34.963Z,13.40
2022-10-10T19:01:08.647Z,12.77
2022-10-10T19:03:36.322Z,13.13
2022-10-10T19:06:05.188Z,13.70
2022-10-10T19:08:31.939Z,14.88
2022-10-10T19:10:58.614Z,15.18
2022-10-10T19:13:25.169Z,11.43
2022-10-10T19:15:52.237Z,12.45
2022-10-10T19:18:19.896Z,8.63
2022-10-10T19:20:46.532Z,14.63
2022-10-10T19:23:14.902Z,13.43
2022-10-10T19:25:45.998Z,15.20
2022-10-10T19:28:12.679Z,12.45
2022-10-10T19:30:44.155Z,15.63
2022-10-10T19:33:11.643Z,12.27
2022-10-10T19:35:40.481Z,13.48
2022-10-10T19:38:09.026Z,16.50
2022-10-10T19:40:36.143Z,15.50
2022-10-10T19:43:02.524Z,20.40
2022-10-10T19:45:29.072Z,15.95
2022-10-10T19:47:55.484Z,23.35
2022-10-10T19:50:21.934Z,11.43
2022-10-10T19:52:49.867Z,11.88
2022-10-10T19:55:18.366Z,12.02
2022-10-10T19:57:44.925Z,21.10
2022-10-10T20:00:12.047Z,14.82
2022-10-10T20:02:38.638Z,15.07
2022-10-10T20:05:05.343Z,15.95
2022-10-10T20:07:31.780Z,14.50
2022-10-10T20:09:58.294Z,18.42
2022-10-10T20:12:24.816Z,17.95
2022-10-10T20:14:52.750Z,21.15
2022-10-10T20:17:19.243Z,23.20
2022-10-10T20:19:45.910Z,25.75
2022-10-10T20:22:12.419Z,26.65
2022-10-10T20:24:39.009Z,27.38
2022-10-10T20:27:05.495Z,23.25
2022-10-10T20:29:32.125Z,20.23
2022-10-10T20:31:58.537Z,27.40
2022-10-10T20:34:25.115Z,22.48
2022-10-10T20:36:52.260Z,25.20
2022-10-10T20:39:19.859Z,29.67
2022-10-10T20:41:46.245Z,30.55
2022-10-10T20:44:14.254Z,29.52
2022-10-10T20:49:30.491Z,27.45
2022-10-10T20:51:57.895Z,28.75
2022-10-10T20:54:24.713Z,32.53
2022-10-10T20:56:51.395Z,25.88
2022-10-10T20:59:20.323Z,20.52
2022-10-10T21:01:46.827Z,27.45
2022-10-10T21:04:14.443Z,19.90
2022-10-10T21:06:44.194Z,19.15
2022-10-10T21:09:13.056Z,18.17
2022-10-10T21:11:48.720Z,17.50
2022-10-10T21:14:17.255Z,19.15
2022-10-10T21:16:44.676Z,14.27
2022-10-10T21:19:12.109Z,13.40
2022-10-10T21:21:38.969Z,15.23
2022-10-10T21:24:07.038Z,11.05
2022-10-10T21:26:34.735Z,14.00
2022-10-10T21:29:01.392Z,8.23
2022-10-10T21:31:33.576Z,10.88
2022-10-10T21:34:02.375Z,10.02
2022-10-10T21:36:29.699Z,17.88
2022-10-10T21:38:56.930Z,8.93
2022-10-10T21:41:23.862Z,7.60
2022-10-10T21:43:56.306Z,5.55
2022-10-10T21:46:29.161Z,10.07
2022-10-10T21:48:58.682Z,4.72
2022-10-10T21:51:25.998Z,7.55
2022-10-10T21:53:57.356Z,8.48
2022-10-10T21:56:25.721Z,10.65
2022-10-10T21:58:56.454Z,13.70
2022-10-10T22:01:32.528Z,10.60
2022-10-10T22:04:05.921Z,19.33
2022-10-10T22:06:33.436Z,10.73
2022-10-10T22:09:01.554Z,11.02
2022-10-10T22:11:29.704Z,10.45
2022-10-10T22:13:56.155Z,8.77
2022-10-10T22:16:24.359Z,10.27
2022-10-10T22:18:54.989Z,10.90
2022-10-10T22:21:25.691Z,11.52
2022-10-10T22:23:55.780Z,7.47
2022-10-10T22:26:22.164Z,12.50
2022-10-10T22:28:50.720Z,7.13
2022-10-10T22:31:23.003Z,10.40
2022-10-10T22:33:49.591Z,6.47
2022-10-10T22:36:16.043Z,7.45
2022-10-10T22:38:44.260Z,5.95
2022-10-10T22:41:12.205Z,12.07
2022-10-10T22:43:38.938Z,6.10
2022-10-10T22:46:05.951Z,11.18
2022-10-10T22:48:33.709Z,8.98
2022-10-10T22:51:18.851Z,8.32
2022-10-10T22:53:46.807Z,12.10
2022-10-10T22:56:19.132Z,11.10
2022-10-10T22:58:51.184Z,11.82
2022-10-10T23:01:22.970Z,6.78
2022-10-10T23:03:50.374Z,13.00
2022-10-10T23:06:17.041Z,10.50
2022-10-10T23:08:43.563Z,11.45
2022-10-10T23:11:10.157Z,8.43
2022-10-10T23:13:36.695Z,12.43
2022-10-10T23:16:04.313Z,6.78
2022-10-10T23:18:31.332Z,13.75
2022-10-10T23:20:58.145Z,7.45
2022-10-10T23:23:25.060Z,10.98
2022-10-10T23:25:51.941Z,7.07
2022-10-10T23:28:18.796Z,9.57
2022-10-10T23:30:47.328Z,8.52
2022-10-10T23:33:14.272Z,11.85
2022-10-10T23:35:41.138Z,15.68
2022-10-10T23:38:08.191Z,11.77
2022-10-10T23:40:35.520Z,8.38
2022-10-10T23:43:02.003Z,11.65
2022-10-10T23:45:28.539Z,8.13
2022-10-10T23:47:55.038Z,8.15
2022-10-10T23:50:22.687Z,8.45
2022-10-10T23:52:49.132Z,5.25
2022-10-10T23:55:15.677Z,4.78
2022-10-10T23:57:42.146Z,6.70
